Time;durP1;ratioP1;P1;durP2;ratioP2;P2;SDS_P1;SDS_P2;PMS_P1;PMS_P2;Temp;Humidity;BMP_temperature;BMP_pressure;BME280_temperature;BME280_humidity;BME280_pressure;Samples;Min_cycle;Max_cycle;Signal;HPM_P1;HPM_P2
2024/03/16 00:00:07;;;;;;;12.90;3.00;;;;;;;14.94;60.20;100911.56;4887620;28;120006;-80
2024/03/16 00:02:35;;;;;;;16.10;3.25;;;;;;;14.93;60.39;100915.16;4902828;28;129167;-82
2024/03/16 00:05:02;;;;;;;10.63;2.88;;;;;;;14.93;60.09;100909.81;4900650;28;125617;-80
2024/03/16 00:07:29;;;;;;;13.57;3.00;;;;;;;14.92;60.39;100918.78;4905894;28;120164;-81
2024/03/16 00:09:56;;;;;;;14.45;2.95;;;;;;;14.92;60.05;100918.78;4887311;28;120407;-81
2024/03/16 00:12:24;;;;;;;15.27;2.95;;;;;;;14.93;60.26;100916.97;4902640;28;123306;-80
2024/03/16 00:14:51;;;;;;;13.70;3.20;;;;;;;14.93;60.11;100920.50;4905281;28;124894;-79
2024/03/16 00:17:20;;;;;;;12.48;2.75;;;;;;;14.94;60.16;100922.22;4890125;28;121058;-81
2024/03/16 00:19:48;;;;;;;14.25;3.22;;;;;;;14.95;59.98;100918.59;4886263;28;119520;-80
2024/03/16 00:22:15;;;;;;;11.10;2.80;;;;;;;14.95;59.94;100923.91;4906323;28;124136;-79
2024/03/16 00:24:43;;;;;;;14.80;2.95;;;;;;;14.96;59.85;100920.31;4904340;28;126210;-80
2024/03/16 00:27:10;;;;;;;13.60;3.40;;;;;;;14.97;59.87;100924.72;4885995;28;121178;-79
2024/03/16 00:29:37;;;;;;;12.55;3.22;;;;;;;14.97;59.76;100924.72;4887519;28;120934;-81
2024/03/16 00:32:05;;;;;;;14.25;3.70;;;;;;;15.00;59.78;100937.00;4920539;28;124175;-80
2024/03/16 00:34:32;;;;;;;12.82;3.30;;;;;;;15.01;59.67;100935.16;4904073;28;123765;-80
2024/03/16 00:37:04;;;;;;;12.48;3.10;;;;;;;15.01;59.90;100932.50;4896180;28;117339;-79
2024/03/16 00:39:32;;;;;;;10.48;3.40;;;;;;;15.02;59.57;100934.22;4903873;28;117057;-81
2024/03/16 00:41:59;;;;;;;16.20;3.72;;;;;;;15.04;59.43;100932.31;4913914;28;123193;-84
2024/03/16 00:44:27;;;;;;;12.15;4.28;;;;;;;15.05;59.41;100928.69;4904807;28;123952;-82
2024/03/16 00:46:54;;;;;;;12.68;3.45;;;;;;;15.05;59.24;100929.56;4909240;28;118136;-82
2024/03/16 00:49:22;;;;;;;14.93;4.00;;;;;;;15.05;59.24;100939.34;4898984;28;118832;-82
2024/03/16 00:51:50;;;;;;;14.48;4.15;;;;;;;15.05;59.41;100945.56;4890666;28;125136;-82
2024/03/16 00:54:18;;;;;;;11.43;3.60;;;;;;;15.05;59.45;100939.34;4907899;28;124075;-80
2024/03/16 00:56:46;;;;;;;13.07;4.43;;;;;;;15.06;59.36;100951.75;4896804;28;117631;-82
2024/03/16 00:59:14;;;;;;;15.35;4.18;;;;;;;15.04;59.41;100948.31;4915320;28;119288;-81
2024/03/16 01:01:41;;;;;;;15.48;4.13;;;;;;;15.02;59.36;100951.09;4913205;28;123094;-82
2024/03/16 01:04:09;;;;;;;16.23;3.92;;;;;;;15.02;59.44;100955.56;4913339;28;124529;-82
2024/03/16 01:06:37;;;;;;;13.40;3.78;;;;;;;14.98;59.44;100949.56;4886438;28;121464;-81
2024/03/16 01:09:04;;;;;;;13.75;3.70;;;;;;;14.96;59.57;100963.00;4915199;28;119869;-82
2024/03/16 01:11:32;;;;;;;12.75;4.15;;;;;;;14.95;59.59;100950.59;4914577;28;123403;-83
2024/03/16 01:13:59;;;;;;;13.65;3.58;;;;;;;14.93;59.72;100949.81;4899344;28;124428;-82
2024/03/16 01:16:27;;;;;;;15.50;3.65;;;;;;;14.91;60.18;100949.06;4908703;28;120725;-82
2024/03/16 01:18:54;;;;;;;19.85;4.13;;;;;;;14.89;59.83;100956.31;4915768;28;120291;-82
2024/03/16 01:21:21;;;;;;;12.93;4.07;;;;;;;14.89;59.83;100958.97;4910572;28;123111;-86
2024/03/16 01:23:49;;;;;;;14.95;3.50;;;;;;;14.87;59.91;100952.88;4905825;28;123314;-82
2024/03/16 01:26:16;;;;;;;14.10;3.20;;;;;;;14.87;60.00;100957.38;4911963;28;119302;-82
2024/03/16 01:28:43;;;;;;;13.77;3.05;;;;;;;14.86;60.00;100972.53;4908426;28;120372;-82
2024/03/16 01:31:11;;;;;;;15.43;3.17;;;;;;;14.84;59.95;100963.72;4912960;28;125126;-84
2024/03/16 01:33:41;;;;;;;14.30;3.13;;;;;;;14.80;60.02;100959.53;4894609;28;122683;-82
2024/03/16 01:36:08;;;;;;;12.93;2.92;;;;;;;14.79;60.22;100960.50;4900387;28;118415;-82
2024/03/16 01:38:36;;;;;;;12.25;2.92;;;;;;;14.77;60.25;100967.75;4910290;28;119129;-83
2024/03/16 01:41:05;;;;;;;12.35;3.05;;;;;;;14.76;60.38;100966.00;4893073;28;124554;-82
2024/03/16 01:43:32;;;;;;;14.15;3.03;;;;;;;14.76;60.67;100966.00;4909149;28;125737;-83
2024/03/16 01:45:59;;;;;;;12.63;3.30;;;;;;;14.75;60.23;100974.97;4892812;28;120483;-82
2024/03/16 01:48:27;;;;;;;14.60;3.45;;;;;;;14.75;60.36;100967.84;4910459;28;119571;-83
2024/03/16 01:50:54;;;;;;;16.30;3.25;;;;;;;14.74;60.48;100978.59;4893583;28;124967;-82
2024/03/16 01:53:22;;;;;;;13.60;3.63;;;;;;;14.74;60.62;100970.59;4912700;28;123972;-81
2024/03/16 01:55:50;;;;;;;10.15;2.88;;;;;;;14.75;60.46;100974.97;4887225;28;118537;-82
2024/03/16 01:58:17;;;;;;;16.35;3.20;;;;;;;14.74;60.63;100983.91;4897189;28;119703;-82
2024/03/16 02:00:47;;;;;;;13.77;2.85;;;;;;;14.74;60.64;100983.91;4894843;28;125887;-82
2024/03/16 02:03:15;;;;;;;9.95;2.88;;;;;;;14.73;60.74;100982.19;4909495;28;124028;-82
2024/03/16 02:05:42;;;;;;;11.10;2.78;;;;;;;14.72;60.86;100986.66;4908984;28;120395;-82
2024/03/16 02:08:11;;;;;;;16.35;3.00;;;;;;;14.71;60.84;100992.97;4915403;28;118771;-82
2024/03/16 02:10:39;;;;;;;13.52;3.00;;;;;;;14.70;60.96;100996.56;4912626;28;125687;-82
2024/03/16 02:13:06;;;;;;;12.90;2.92;;;;;;;14.69;61.02;100997.53;4916195;28;123237;-82
2024/03/16 02:15:34;;;;;;;10.15;2.80;;;;;;;14.68;60.98;100994.94;4919344;28;118047;-82
2024/03/16 02:18:02;;;;;;;12.85;3.17;;;;;;;14.66;61.24;101002.19;4912490;28;118256;-83
2024/03/16 02:20:31;;;;;;;13.60;3.42;;;;;;;14.64;61.33;100998.75;4898285;28;124552;-82
2024/03/16 02:22:59;;;;;;;13.57;3.08;;;;;;;14.63;61.18;100997.88;4917315;28;123187;-84
2024/03/16 02:25:27;;;;;;;15.52;3.10;;;;;;;14.63;61.43;101008.53;4913583;28;119381;-82
2024/03/16 02:27:54;;;;;;;11.35;3.00;;;;;;;14.61;61.20;101005.09;4913047;28;120040;-83
2024/03/16 02:30:22;;;;;;;11.65;2.90;;;;;;;14.59;61.53;101004.34;4920550;28;123479;-83
2024/03/16 02:32:49;;;;;;;12.50;2.85;;;;;;;14.58;61.53;101011.50;4915309;28;123707;-82
2024/03/16 02:35:17;;;;;;;11.40;2.90;;;;;;;14.57;61.67;101007.09;4912839;28;118552;-83
2024/03/16 02:37:45;;;;;;;13.27;3.17;;;;;;;14.56;61.67;101002.69;4886167;28;120121;-82
2024/03/16 02:40:13;;;;;;;10.50;3.28;;;;;;;14.56;61.74;101013.38;4894009;28;125369;-83
2024/03/16 02:42:42;;;;;;;11.73;3.70;;;;;;;14.53;61.88;101002.88;4907397;28;122455;-82
2024/03/16 02:45:10;;;;;;;17.50;3.92;;;;;;;14.53;61.73;101002.88;4893707;28;119826;-82
2024/03/16 02:47:38;;;;;;;13.27;3.88;;;;;;;14.52;61.88;101017.16;4913675;28;119675;-82
2024/03/16 02:50:09;;;;;;;12.38;4.00;;;;;;;14.51;62.00;101020.75;4909728;28;124945;-81
2024/03/16 02:52:37;;;;;;;14.85;4.82;;;;;;;14.51;61.95;101020.75;4910133;28;124160;-82
2024/03/16 02:55:05;;;;;;;14.40;4.60;;;;;;;14.50;62.04;101013.69;4908449;28;120209;-82
2024/03/16 02:57:32;;;;;;;14.00;4.32;;;;;;;14.50;62.21;101024.34;4891707;28;119311;-82
2024/03/16 03:00:00;;;;;;;14.88;5.82;;;;;;;14.50;62.22;101034.16;4918324;28;124406;-84
2024/03/16 03:02:31;;;;;;;15.02;5.70;;;;;;;14.49;62.25;101038.66;4920483;28;124936;-84
2024/03/16 03:04:58;;;;;;;16.92;5.55;;;;;;;14.47;62.33;101040.56;4903251;28;117392;-84
2024/03/16 03:07:26;;;;;;;12.75;5.30;;;;;;;14.46;62.42;101044.16;4940369;28;117373;-84
2024/03/16 03:09:53;;;;;;;15.30;6.20;;;;;;;14.46;62.48;101046.81;4922240;28;123069;-82
2024/03/16 03:12:20;;;;;;;15.75;6.78;;;;;;;14.45;62.48;101052.22;4923458;28;125051;-82
2024/03/16 03:14:48;;;;;;;19.38;7.55;;;;;;;14.43;62.47;101055.00;4905112;28;120110;-82
2024/03/16 03:17:15;;;;;;;17.85;8.30;;;;;;;14.41;62.49;101056.91;4904668;28;117952;-83
2024/03/16 03:19:43;;;;;;;17.63;7.97;;;;;;;14.42;62.67;101069.25;4922139;28;123816;-85
2024/03/16 03:22:10;;;;;;;17.45;8.68;;;;;;;14.41;62.75;101067.56;4899496;28;124537;-85
2024/03/16 03:24:38;;;;;;;20.48;8.15;;;;;;;14.39;62.64;101086.28;4917201;28;120174;-83
2024/03/16 03:27:05;;;;;;;19.42;8.43;;;;;;;14.37;62.55;101090.84;4916745;28;118601;-83
2024/03/16 03:29:32;;;;;;;27.25;8.30;;;;;;;14.33;62.28;101091.09;4912997;28;123671;-85
2024/03/16 03:32:00;;;;;;;24.52;7.75;;;;;;;14.26;62.33;101095.06;4912296;28;122099;-82
2024/03/16 03:34:27;;;;;;;20.73;7.47;;;;;;;14.20;62.56;101097.13;4921223;28;118727;-85
2024/03/16 03:36:54;;;;;;;20.85;6.57;;;;;;;14.13;62.07;101106.41;4919597;28;117407;-83
2024/03/16 03:39:24;;;;;;;20.38;6.72;;;;;;;14.09;61.99;101114.66;4897408;28;122716;-83
2024/03/16 03:41:52;;;;;;;25.63;6.88;;;;;;;14.04;62.00;101128.22;4907841;28;123298;-83
2024/03/16 03:44:24;;;;;;;20.40;6.78;;;;;;;13.98;61.99;101123.25;4907533;28;120893;-82
2024/03/16 03:46:54;;;;;;;22.92;6.72;;;;;;;13.93;61.84;101130.63;4906122;28;119609;-83
2024/03/16 03:49:39;;;;;;;17.55;6.30;;;;;;;13.90;61.85;101138.75;4906629;28;124990;-82
2024/03/16 03:52:06;;;;;;;18.17;6.13;;;;;;;13.80;61.78;101149.91;4890884;28;124599;-81
2024/03/16 03:54:34;;;;;;;13.82;5.78;;;;;;;13.77;61.91;101151.91;4920348;28;119110;-84
2024/03/16 03:57:03;;;;;;;16.30;5.55;;;;;;;13.72;62.09;101154.78;4903035;28;119198;-83
2024/03/16 03:59:31;;;;;;;15.00;5.85;;;;;;;13.70;61.83;101151.34;4883221;28;124274;-82
2024/03/16 04:01:59;;;;;;;15.38;5.78;;;;;;;13.68;62.05;101153.25;4898670;28;128224;-81
2024/03/16 04:04:26;;;;;;;13.95;6.00;;;;;;;13.65;62.01;101158.72;4885053;28;120409;-82
2024/03/16 04:06:53;;;;;;;11.55;5.35;;;;;;;13.63;61.72;101157.94;4888384;28;120146;-82
2024/03/16 04:09:21;;;;;;;13.10;5.68;;;;;;;13.59;61.96;101164.38;4902214;28;123695;-82
2024/03/16 04:11:48;;;;;;;10.10;5.10;;;;;;;13.57;61.86;101174.25;4902786;28;124709;-81
2024/03/16 04:14:16;;;;;;;11.30;5.18;;;;;;;13.55;61.89;101173.47;4898691;28;119208;-83
2024/03/16 04:16:43;;;;;;;11.05;5.00;;;;;;;13.53;61.96;101180.66;4920278;28;119472;-81
2024/03/16 04:19:10;;;;;;;13.38;4.88;;;;;;;13.50;61.82;101188.78;4888508;28;125124;-82
2024/03/16 04:21:38;;;;;;;11.35;4.43;;;;;;;13.47;61.94;101191.59;4903810;28;124000;-82
2024/03/16 04:24:05;;;;;;;10.80;4.43;;;;;;;13.44;61.83;101204.13;4902213;28;120204;-82
2024/03/16 04:26:33;;;;;;;10.30;4.03;;;;;;;13.42;61.75;101207.81;4887700;28;120433;-84
2024/03/16 04:29:01;;;;;;;8.43;4.45;;;;;;;13.38;61.81;101204.44;4900421;28;124243;-82
2024/03/16 04:31:28;;;;;;;8.45;4.13;;;;;;;13.36;61.85;101211.66;4884638;28;124792;-84
2024/03/16 04:33:56;;;;;;;9.50;4.00;;;;;;;13.34;61.83;101208.22;4904980;28;120149;-81
2024/03/16 04:36:23;;;;;;;6.03;3.92;;;;;;;13.32;61.72;101220.72;4889193;28;121121;-81
2024/03/16 04:38:50;;;;;;;10.88;4.30;;;;;;;13.27;61.95;101217.41;4888495;28;123512;-81
2024/03/16 04:41:19;;;;;;;7.88;4.22;;;;;;;13.26;61.90;101223.69;4907967;28;124408;-81
2024/03/16 04:43:47;;;;;;;6.30;4.25;;;;;;;13.24;61.92;101228.19;4892108;28;120187;-83
2024/03/16 04:46:14;;;;;;;8.48;4.20;;;;;;;13.21;61.90;101239.00;4908533;28;119178;-82
2024/03/16 04:48:42;;;;;;;6.68;4.10;;;;;;;13.18;61.84;101244.47;4892550;28;125259;-82
2024/03/16 04:51:09;;;;;;;7.80;4.03;;;;;;;13.14;62.00;101254.38;4908045;28;124067;-82
2024/03/16 04:53:37;;;;;;;7.68;4.28;;;;;;;13.10;61.89;101251.97;4905341;28;119719;-82
2024/03/16 04:56:04;;;;;;;8.27;4.05;;;;;;;13.05;62.09;101263.69;4890056;28;120095;-82
2024/03/16 04:58:31;;;;;;;6.07;3.80;;;;;;;13.01;61.97;101263.91;4906714;28;122112;-82
2024/03/16 05:00:59;;;;;;;5.78;4.10;;;;;;;12.96;62.05;101272.13;4909612;28;123940;-81
2024/03/16 05:03:26;;;;;;;6.05;4.05;;;;;;;12.92;62.01;101282.94;4892666;28;119531;-83
2024/03/16 05:05:54;;;;;;;5.47;3.90;;;;;;;12.88;62.25;101290.22;4913038;28;117280;-82
2024/03/16 05:08:21;;;;;;;5.22;3.83;;;;;;;12.85;62.16;101293.88;4914475;28;123247;-83
2024/03/16 05:10:51;;;;;;;5.65;3.33;;;;;;;12.83;62.19;101303.72;4919502;28;124283;-82
2024/03/16 05:13:19;;;;;;;4.95;3.30;;;;;;;12.80;62.11;101303.00;4897980;28;117782;-82
2024/03/16 05:15:46;;;;;;;6.63;3.42;;;;;;;12.76;62.25;101301.44;4894203;28;120161;-82
2024/03/16 05:18:14;;;;;;;7.38;3.65;;;;;;;12.73;62.15;101306.88;4915361;28;124277;-82
2024/03/16 05:20:42;;;;;;;6.18;3.63;;;;;;;12.72;62.32;101306.03;4917049;28;123194;-82
2024/03/16 05:23:09;;;;;;;8.10;3.92;;;;;;;12.69;62.40;101310.63;4919653;28;118716;-82
2024/03/16 05:25:39;;;;;;;7.70;3.40;;;;;;;12.66;62.22;101320.47;4901998;28;119332;-82
2024/03/16 05:28:07;;;;;;;6.35;3.45;;;;;;;12.65;62.20;101326.69;4916574;28;123581;-81
2024/03/16 05:30:35;;;;;;;5.63;3.65;;;;;;;12.63;62.39;101333.88;4903753;28;122441;-82
2024/03/16 05:33:02;;;;;;;6.88;4.00;;;;;;;12.60;62.21;101336.69;4918682;28;119315;-82
2024/03/16 05:35:30;;;;;;;6.28;4.70;;;;;;;12.58;62.53;101346.53;4916359;28;119759;-81
2024/03/16 05:37:57;;;;;;;6.93;4.40;;;;;;;12.58;62.34;101346.53;4898457;28;124725;-82
2024/03/16 05:40:24;;;;;;;9.20;4.93;;;;;;;12.56;62.36;101350.19;4900526;28;123246;-82
2024/03/16 05:42:52;;;;;;;8.88;4.20;;;;;;;12.56;62.53;101359.00;4926793;28;118931;-83
2024/03/16 05:45:20;;;;;;;8.25;4.30;;;;;;;12.53;62.24;101364.47;4930561;28;119897;-82
2024/03/16 05:47:47;;;;;;;8.32;4.18;;;;;;;12.51;62.21;101371.66;4925795;28;123485;-84
2024/03/16 05:50:14;;;;;;;6.82;3.30;;;;;;;12.49;62.40;101376.19;4931350;28;125699;-83
2024/03/16 05:52:42;;;;;;;7.07;3.50;;;;;;;12.49;62.64;101381.50;4921895;28;118662;-81
2024/03/16 05:55:09;;;;;;;4.90;2.10;;;;;;;12.48;62.24;101387.72;4904862;28;117549;-82
2024/03/16 05:57:37;;;;;;;6.35;2.30;;;;;;;12.47;62.30;101388.66;4919019;28;123309;-82
2024/03/16 06:00:13;;;;;;;5.55;2.00;;;;;;;12.46;62.31;101398.41;4907271;28;125118;-82
2024/03/16 06:02:41;;;;;;;3.78;2.10;;;;;;;12.46;62.27;101408.19;4937751;28;118493;-82
2024/03/16 06:05:09;;;;;;;3.90;1.73;;;;;;;12.44;62.37;101407.38;4916404;28;118662;-81
2024/03/16 06:07:37;;;;;;;4.00;2.00;;;;;;;12.44;62.06;101418.00;4909089;28;124610;-81
2024/03/16 06:10:09;;;;;;;4.57;2.03;;;;;;;12.42;62.02;101430.50;4912877;28;124893;-82
2024/03/16 06:12:37;;;;;;;6.93;2.58;;;;;;;12.40;62.18;101432.38;4918977;28;120283;-82
2024/03/16 06:15:08;;;;;;;3.60;2.03;;;;;;;12.41;62.06;101428.75;4898949;28;120276;-84
2024/03/16 06:17:36;;;;;;;3.08;2.13;;;;;;;12.39;62.03;101442.09;4909914;28;125479;-81
2024/03/16 06:20:05;;;;;;;4.93;1.98;;;;;;;12.37;61.96;101454.59;4898142;28;122420;-82
2024/03/16 06:22:33;;;;;;;7.93;2.30;;;;;;;12.34;61.94;101453.84;4913344;28;119435;-83
2024/03/16 06:25:00;;;;;;;4.47;1.70;;;;;;;12.33;62.02;101458.31;4912147;28;119635;-81
2024/03/16 06:27:27;;;;;;;5.85;2.20;;;;;;;12.30;61.69;101462.88;4902139;28;126316;-81
2024/03/16 06:29:57;;;;;;;6.80;1.95;;;;;;;12.29;61.91;101477.13;4916564;28;124860;-80
2024/03/16 06:32:24;;;;;;;4.88;2.05;;;;;;;12.26;61.82;101494.91;4914957;28;117798;-83
2024/03/16 06:34:53;;;;;;;4.82;1.92;;;;;;;12.26;61.76;101494.91;4916185;28;117783;-81
2024/03/16 06:37:21;;;;;;;5.18;2.33;;;;;;;12.27;61.93;101491.31;4894662;28;125438;-81
2024/03/16 06:39:49;;;;;;;5.32;1.85;;;;;;;12.30;62.04;101494.75;4918755;28;124189;-82
2024/03/16 06:42:17;;;;;;;5.35;2.05;;;;;;;12.30;61.97;101500.97;4913574;28;117837;-81
2024/03/16 06:44:44;;;;;;;3.33;1.83;;;;;;;12.32;61.96;101508.84;4915381;28;120634;-82
2024/03/16 06:47:11;;;;;;;5.05;1.50;;;;;;;12.31;61.86;101515.09;4898243;28;124828;-81
2024/03/16 06:49:40;;;;;;;5.70;1.65;;;;;;;12.32;61.85;101524.78;4897559;28;122490;-81
2024/03/16 06:52:07;;;;;;;4.72;1.50;;;;;;;12.31;61.84;101521.25;4910544;28;116878;-82
2024/03/16 06:54:37;;;;;;;6.22;1.85;;;;;;;12.30;61.82;101531.94;4895513;28;119350;-80
2024/03/16 06:57:50;;;;;;;3.55;1.45;;;;;;;12.27;61.68;101544.44;4893571;28;125456;-81
2024/03/16 07:01:18;;;;;;;5.93;1.23;;;;;;;12.22;61.63;101561.47;4912025;28;124667;-81
2024/03/16 07:03:56;;;;;;;3.58;1.23;;;;;;;12.19;61.63;101577.56;4909418;28;118881;-82
2024/03/16 07:06:39;;;;;;;3.55;0.90;;;;;;;12.13;61.59;101583.97;4913737;28;120122;-82
2024/03/16 07:27:16;;;;;;;1.88;0.75;;;;;;;11.66;61.84;101634.41;4905578;28;124179;-81
2024/03/16 07:29:44;;;;;;;1.42;0.70;;;;;;;11.68;61.84;101645.81;4899825;28;123197;-63
2024/03/16 07:32:12;;;;;;;3.75;0.73;;;;;;;11.69;61.90;101653.72;4902066;28;119393;-63
2024/03/16 07:34:39;;;;;;;1.48;0.60;;;;;;;11.74;61.85;101666.81;4895366;28;118910;-62
2024/03/16 07:37:07;;;;;;;3.00;0.70;;;;;;;11.79;61.90;101680.81;4878220;28;124357;-63
2024/03/16 07:39:35;;;;;;;2.05;1.10;;;;;;;11.83;61.89;101670.94;4888789;28;123989;-62
2024/03/16 07:42:03;;;;;;;3.42;0.93;;;;;;;11.86;61.63;101692.03;4882459;28;118790;-62
2024/03/16 07:44:34;;;;;;;1.30;0.80;;;;;;;11.90;61.75;101695.47;4900216;28;118062;-66
2024/03/16 07:47:01;;;;;;;5.40;0.80;;;;;;;11.90;61.62;101692.81;4895219;28;124195;-66
2024/03/16 07:49:30;;;;;;;2.40;0.60;;;;;;;11.91;61.63;101689.28;4883672;28;124206;-65
2024/03/16 07:51:57;;;;;;;1.88;0.63;;;;;;;11.92;61.76;101691.84;4888974;28;119334;-66
2024/03/16 07:54:25;;;;;;;1.35;0.60;;;;;;;11.95;61.65;101690.88;4885294;28;119157;-66
2024/03/16 07:56:52;;;;;;;2.05;0.95;;;;;;;11.97;61.73;101678.41;4868051;28;123665;-66
2024/03/16 07:59:20;;;;;;;3.67;0.88;;;;;;;11.99;61.70;101703.09;4897430;28;122857;-66
2024/03/16 08:01:47;;;;;;;3.55;0.80;;;;;;;12.00;61.61;101707.50;4881835;28;120906;-65
2024/03/16 08:04:15;;;;;;;2.03;0.80;;;;;;;12.03;61.45;101704.72;4886144;28;119000;-63
2024/03/16 08:06:43;;;;;;;3.95;0.65;;;;;;;12.05;61.38;101724.13;4882767;28;124004;-62
2024/03/16 08:09:11;;;;;;;2.08;0.77;;;;;;;12.08;61.40;101726.66;4881645;28;124396;-62
2024/03/16 08:11:39;;;;;;;3.72;0.63;;;;;;;12.12;61.17;101725.63;4879276;28;119472;-62
2024/03/16 08:14:08;;;;;;;2.45;0.85;;;;;;;12.15;61.24;101736.16;4882776;28;119405;-64
2024/03/16 08:16:36;;;;;;;4.20;0.70;;;;;;;12.19;61.21;101737.75;4884221;28;124752;-62
2024/03/16 08:19:03;;;;;;;4.82;0.70;;;;;;;12.23;61.29;101750.00;4882047;28;123585;-62
2024/03/16 08:21:32;;;;;;;1.15;0.70;;;;;;;12.27;61.16;101751.59;4889739;28;118936;-62
2024/03/16 08:24:00;;;;;;;3.20;0.65;;;;;;;12.32;61.18;101761.19;4884846;28;118618;-62
2024/03/16 08:26:28;;;;;;;3.35;0.70;;;;;;;12.38;61.05;101763.63;4883519;28;123840;-65
2024/03/16 08:28:56;;;;;;;5.30;1.10;;;;;;;12.41;61.03;101771.47;4882860;28;124244;-65
2024/03/16 08:31:24;;;;;;;1.70;0.73;;;;;;;12.48;60.99;101770.31;4889865;28;119553;-65
2024/03/16 08:33:51;;;;;;;5.05;1.13;;;;;;;12.54;60.99;101780.69;4885281;28;119226;-64
2024/03/16 08:36:19;;;;;;;2.42;0.60;;;;;;;12.60;60.99;101777.84;4885154;28;124106;-65
2024/03/16 08:38:46;;;;;;;1.25;0.70;;;;;;;12.65;60.91;101781.16;4889105;28;125429;-64
2024/03/16 08:41:13;;;;;;;2.50;0.70;;;;;;;12.70;60.87;101785.44;4886209;28;120493;-65
2024/03/16 08:43:41;;;;;;;4.90;0.93;;;;;;;12.74;60.63;101789.72;4882943;28;118870;-64
2024/03/16 08:46:08;;;;;;;4.43;0.77;;;;;;;12.76;60.57;101790.53;4883729;28;124671;-64
2024/03/16 08:48:35;;;;;;;2.85;0.68;;;;;;;12.78;60.54;101799.31;4880243;28;124679;-64
2024/03/16 08:51:04;;;;;;;2.42;0.60;;;;;;;12.78;60.28;101796.63;4882281;28;118266;-64
2024/03/16 08:53:32;;;;;;;2.42;0.70;;;;;;;12.80;60.26;101797.44;4881527;28;121262;-64
2024/03/16 08:56:01;;;;;;;2.28;0.60;;;;;;;12.81;60.27;101800.06;4883980;28;124855;-64
2024/03/16 08:58:29;;;;;;;2.15;0.70;;;;;;;12.84;60.28;101799.06;4884290;28;124511;-64
2024/03/16 09:00:58;;;;;;;1.25;0.60;;;;;;;12.88;60.16;101805.97;4889144;28;119083;-64
2024/03/16 09:03:25;;;;;;;5.30;0.57;;;;;;;12.95;60.29;101810.13;4891537;28;119125;-64
2024/03/16 09:05:53;;;;;;;2.03;0.73;;;;;;;13.01;60.13;101807.22;4895203;28;124490;-62
2024/03/16 09:08:20;;;;;;;2.58;0.75;;;;;;;13.08;60.14;101818.50;4893366;28;122331;-62
2024/03/16 09:10:47;;;;;;;3.15;0.60;;;;;;;13.12;59.96;101814.78;4895828;28;118868;-63
2024/03/16 09:13:15;;;;;;;4.85;0.77;;;;;;;13.20;60.03;101814.47;4889878;28;118769;-62
2024/03/16 09:15:43;;;;;;;6.68;1.00;;;;;;;13.26;59.86;101816.91;4888191;28;123323;-62
2024/03/16 09:18:11;;;;;;;1.88;0.60;;;;;;;13.31;59.68;101817.59;4884875;28;124073;-62
2024/03/16 09:20:43;;;;;;;3.63;0.90;;;;;;;13.32;59.60;101824.66;4891778;28;119466;-62
2024/03/16 09:23:13;;;;;;;3.83;0.82;;;;;;;13.37;59.75;101836.00;4895703;28;117930;-62
2024/03/16 09:25:41;;;;;;;7.15;1.00;;;;;;;13.41;59.50;101839.38;4889552;28;123933;-62
2024/03/16 09:28:13;;;;;;;2.30;0.73;;;;;;;13.46;59.47;101839.19;4889146;28;123823;-62
2024/03/16 09:30:44;;;;;;;2.10;0.85;;;;;;;13.49;59.50;101844.41;4883925;28;119665;-62
2024/03/16 09:33:12;;;;;;;2.58;1.00;;;;;;;13.53;59.26;101846.00;4886003;28;119135;-62
2024/03/16 09:35:41;;;;;;;3.83;1.00;;;;;;;13.54;59.34;101847.72;4895916;28;124862;-62
2024/03/16 09:38:10;;;;;;;3.72;0.80;;;;;;;13.55;59.05;101865.44;4888499;28;124104;-62
2024/03/16 09:40:43;;;;;;;2.42;0.90;;;;;;;13.54;59.03;101858.34;4887953;28;120227;-62
2024/03/16 09:43:11;;;;;;;2.78;0.60;;;;;;;13.53;58.91;101868.16;4886532;28;119546;-62
2024/03/16 09:45:40;;;;;;;4.03;0.80;;;;;;;13.54;58.91;101869.00;4883477;28;124070;-62
2024/03/16 09:48:09;;;;;;;3.83;1.00;;;;;;;13.53;58.77;101873.47;4879504;28;125916;-61
2024/03/16 09:50:49;;;;;;;3.90;0.80;;;;;;;13.54;58.62;101879.66;4881832;28;117179;-62
2024/03/16 09:53:34;;;;;;;2.13;1.00;;;;;;;13.57;58.46;101876.88;4879562;28;120296;-62
2024/03/16 09:56:07;;;;;;;4.93;1.00;;;;;;;13.61;58.75;101881.13;4881291;28;123628;-62
2024/03/16 09:58:34;;;;;;;5.05;1.00;;;;;;;13.66;58.69;101889.81;4895539;28;123922;-62
2024/03/16 10:01:03;;;;;;;2.17;0.90;;;;;;;13.71;58.66;101897.59;4896867;28;118386;-62
2024/03/16 10:03:30;;;;;;;7.03;1.13;;;;;;;13.75;58.72;101901.84;4863907;28;118136;-62
2024/03/16 10:05:59;;;;;;;1.75;0.85;;;;;;;13.77;58.64;101900.88;4884344;28;124003;-62
2024/03/16 10:08:26;;;;;;;3.00;0.80;;;;;;;13.80;58.65;101916.72;4883547;28;124758;-62
2024/03/16 10:11:18;;;;;;;4.13;0.95;;;;;;;13.82;58.70;101922.88;4897612;28;118995;-62
2024/03/16 10:13:58;;;;;;;6.45;1.70;;;;;;;13.87;58.56;101927.13;4884007;28;119096;-62
2024/03/16 10:16:26;;;;;;;3.78;0.98;;;;;;;13.91;58.65;101936.72;4886917;28;124054;-64
2024/03/16 10:18:55;;;;;;;7.22;1.27;;;;;;;13.96;58.38;101945.41;4868978;28;122904;-63
2024/03/16 10:21:31;;;;;;;4.30;1.38;;;;;;;14.01;58.37;101943.38;4888924;28;119352;-62
2024/03/16 10:23:59;;;;;;;1.63;1.02;;;;;;;14.11;58.47;101952.75;4885139;28;119357;-62
2024/03/16 10:26:31;;;;;;;2.55;0.85;;;;;;;14.20;58.63;101955.03;4879473;28;125413;-65
2024/03/16 10:29:07;;;;;;;2.42;0.95;;;;;;;14.27;58.53;101954.75;4882103;28;124404;-64
2024/03/16 10:31:34;;;;;;;1.52;0.98;;;;;;;14.30;58.21;101959.97;4884042;28;120371;-64
2024/03/16 10:34:11;;;;;;;5.38;0.90;;;;;;;14.31;58.16;101961.69;4874740;28;118950;-64
2024/03/16 10:36:39;;;;;;;1.55;0.77;;;;;;;14.32;58.12;101974.09;4886379;28;124148;-64
2024/03/16 10:39:08;;;;;;;2.03;0.80;;;;;;;14.29;57.92;101984.88;4888249;28;124213;-64
2024/03/16 10:41:36;;;;;;;2.90;1.15;;;;;;;14.25;57.72;101983.25;4872703;28;119402;-64
2024/03/16 10:44:04;;;;;;;2.63;1.23;;;;;;;14.17;57.51;101984.44;4882533;28;120202;-64
2024/03/16 10:46:30;;;;;;;2.58;1.00;;;;;;;14.11;57.36;101986.50;4897721;28;123394;-62
2024/03/16 10:48:58;;;;;;;3.45;1.42;;;;;;;14.06;57.35;101994.69;4866839;28;125316;-62
2024/03/16 10:51:25;;;;;;;3.10;1.20;;;;;;;14.05;57.50;102003.59;4866333;28;119843;-61
2024/03/16 10:53:52;;;;;;;2.42;1.10;;;;;;;14.04;57.24;102012.53;4876616;28;120033;-62
2024/03/16 10:56:19;;;;;;;2.63;1.10;;;;;;;13.99;57.38;102009.19;4879839;28;124000;-62
2024/03/16 10:58:45;;;;;;;4.85;1.27;;;;;;;13.96;57.25;102030.63;4883156;28;124044;-62
2024/03/16 11:01:19;;;;;;;1.30;0.85;;;;;;;13.90;57.11;102030.84;4883181;28;120063;-62
2024/03/16 11:04:01;;;;;;;2.25;1.13;;;;;;;13.85;57.19;102027.53;4875886;28;119857;-62
2024/03/16 11:06:28;;;;;;;2.83;1.30;;;;;;;13.85;57.24;102022.19;4885145;28;123898;-62
2024/03/16 11:08:58;;;;;;;5.68;1.20;;;;;;;13.85;57.11;102023.06;4883259;28;124233;-62
2024/03/16 11:11:28;;;;;;;2.65;1.10;;;;;;;13.88;57.17;102030.03;4861874;28;119395;-62
2024/03/16 11:14:04;;;;;;;5.38;1.20;;;;;;;13.89;57.16;102030.00;4895921;28;119285;-62
2024/03/16 11:16:35;;;;;;;3.38;1.42;;;;;;;13.92;57.15;102044.97;4879732;28;124117;-62
2024/03/16 11:19:10;;;;;;;4.18;1.30;;;;;;;13.96;57.11;102057.25;4877582;28;124454;-61
2024/03/16 11:21:38;;;;;;;3.38;1.58;;;;;;;14.00;57.37;102058.88;4870118;28;120926;-62
2024/03/16 11:24:16;;;;;;;6.10;1.20;;;;;;;14.08;57.25;102059.41;4882333;28;119944;-62
2024/03/16 11:26:46;;;;;;;4.13;1.58;;;;;;;14.12;56.99;102058.34;4884501;28;124296;-62
2024/03/16 11:29:16;;;;;;;4.32;1.88;;;;;;;14.17;57.10;102045.72;4846433;28;123283;-62
2024/03/16 11:31:48;;;;;;;2.58;1.45;;;;;;;14.23;56.73;102049.09;4862549;28;118700;-63
2024/03/16 11:34:16;;;;;;;3.40;1.40;;;;;;;14.24;56.81;102045.47;4897663;28;119014;-62
2024/03/16 11:36:47;;;;;;;2.83;1.30;;;;;;;14.27;56.86;102045.34;4862995;28;123072;-62
2024/03/16 11:39:14;;;;;;;4.03;1.10;;;;;;;14.30;56.62;102045.25;4860619;28;124748;-62